Terminal Aerodrome Forecast
Issued by NWS

Home | Current Version | Previous Version | Text Only | Print | Product List | Glossary On
Versions: 1 2 3 4 5 6 7 8 9 10 11 12 13 14
000
FTUS44 KLIX 241126
TAFMCB
TAF
KMCB 241126Z 2412/2512 VRB04KT P6SM SCT040
     FM241900 11005KT P6SM VCTS SCT040CB
     FM250100 VRB04KT P6SM FEW040
     FM250500 00000KT P6SM BKN250=

USA.gov is the U.S. government's official web portal to all federal, state and local government web resources and services.